createdAt,value
2022-10-02T00:01:44.858Z,96223.97
2022-10-02T00:04:17.345Z,96238.56
2022-10-02T00:06:48.311Z,96240.09
2022-10-02T00:09:29.302Z,96253.44
2022-10-02T00:11:59.481Z,96247.94
2022-10-02T00:14:31.591Z,96254.22
2022-10-02T00:17:01.242Z,96256.28
2022-10-02T00:19:28.302Z,96262.81
2022-10-02T00:22:17.102Z,96276.63
2022-10-02T00:24:55.041Z,96272.91
2022-10-02T00:27:49.919Z,96264.41
2022-10-02T00:30:18.371Z,96264.16
2022-10-02T00:32:57.395Z,96269.38
2022-10-02T00:35:47.871Z,96265.44
2022-10-02T00:38:45.950Z,96256.44
2022-10-02T00:41:40.541Z,96246.38
2022-10-02T00:44:35.381Z,96229.16
2022-10-02T00:47:08.181Z,96239.91
2022-10-02T00:49:50.005Z,96235.81
2022-10-02T00:52:22.879Z,96246.13
2022-10-02T00:55:03.520Z,96244.91
2022-10-02T00:57:58.021Z,96256.56
2022-10-02T01:00:25.302Z,96250.03
2022-10-02T01:03:08.151Z,96263.28
2022-10-02T01:05:35.814Z,96261.03
2022-10-02T01:08:02.782Z,96250.63
2022-10-02T01:10:30.613Z,96247.00
2022-10-02T01:12:59.224Z,96254.94
2022-10-02T01:15:36.481Z,96262.88
2022-10-02T01:18:04.103Z,96261.94
2022-10-02T01:20:52.962Z,96259.41
2022-10-02T01:23:29.311Z,96259.47
2022-10-02T01:25:57.942Z,96272.66
2022-10-02T01:28:25.569Z,96272.22
2022-10-02T01:30:58.081Z,96276.72
2022-10-02T01:33:25.141Z,96270.44
2022-10-02T01:35:52.583Z,96253.97
2022-10-02T01:38:23.500Z,96252.44
2022-10-02T01:40:50.821Z,96246.03
2022-10-02T01:43:21.835Z,96236.25
2022-10-02T01:45:52.850Z,96239.53
2022-10-02T01:48:30.121Z,96244.13
2022-10-02T01:51:15.232Z,96229.25
2022-10-02T01:53:49.121Z,96230.94
2022-10-02T01:56:35.405Z,96230.63
2022-10-02T01:59:30.092Z,96227.00
2022-10-02T02:02:14.509Z,96225.16
2022-10-02T02:04:50.492Z,96222.03
2022-10-02T02:07:46.871Z,96207.88
2022-10-02T02:10:18.170Z,96224.22
2022-10-02T02:13:30.011Z,96203.94
2022-10-02T02:16:02.911Z,96215.88
2022-10-02T02:18:34.682Z,96226.69
2022-10-02T02:21:09.600Z,96229.53
2022-10-02T02:23:39.862Z,96243.03
2022-10-02T02:26:12.662Z,96235.97
2022-10-02T02:28:48.862Z,96223.88
2022-10-02T02:31:21.102Z,96236.22
2022-10-02T02:34:04.712Z,96251.13
2022-10-02T02:36:41.492Z,96250.94
2022-10-02T02:39:16.992Z,96252.91
2022-10-02T02:42:00.472Z,96251.19
2022-10-02T02:44:42.151Z,96256.00
2022-10-02T02:47:58.901Z,96251.25
2022-10-02T02:50:41.641Z,96255.69
2022-10-02T02:53:19.341Z,96252.84
2022-10-02T02:56:08.216Z,96261.56
2022-10-02T02:58:41.752Z,96273.66
2022-10-02T03:01:09.116Z,96269.03
2022-10-02T03:03:36.061Z,96275.91
2022-10-02T03:06:21.971Z,96270.72
2022-10-02T03:08:51.860Z,96277.28
2022-10-02T03:11:46.871Z,96285.69
2022-10-02T03:14:35.792Z,96294.19
2022-10-02T03:17:11.922Z,96296.31
2022-10-02T03:19:50.961Z,96304.69
2022-10-02T03:22:45.142Z,96306.34
2022-10-02T03:25:18.223Z,96317.69
2022-10-02T03:27:54.275Z,96309.97
2022-10-02T03:30:22.243Z,96324.53
2022-10-02T03:32:53.765Z,96325.28
2022-10-02T03:35:22.783Z,96329.19
2022-10-02T03:37:56.568Z,96337.78
2022-10-02T03:40:24.841Z,96346.44
2022-10-02T03:42:52.241Z,96348.19
2022-10-02T03:45:46.281Z,96337.47
2022-10-02T03:48:07.078Z,96350.44
2022-10-02T03:50:36.324Z,96364.72
2022-10-02T03:53:13.212Z,96369.38
2022-10-02T03:55:43.102Z,96373.47
2022-10-02T03:58:14.571Z,96379.13
2022-10-02T04:01:04.511Z,96392.63
2022-10-02T04:03:37.100Z,96399.41
2022-10-02T04:06:15.692Z,96397.50
2022-10-02T04:08:53.112Z,96393.53
2022-10-02T04:11:38.932Z,96395.63
2022-10-02T04:14:22.833Z,96409.94
2022-10-02T04:17:02.353Z,96412.53
2022-10-02T04:19:46.525Z,96414.41
2022-10-02T04:22:35.026Z,96420.22
2022-10-02T04:25:17.677Z,96425.41
2022-10-02T04:27:53.450Z,96425.56
2022-10-02T04:30:21.316Z,96412.91
2022-10-02T04:32:48.392Z,96412.06
2022-10-02T04:35:33.802Z,96400.19
2022-10-02T04:38:29.333Z,96417.19
2022-10-02T04:41:41.782Z,96423.97
2022-10-02T04:44:11.843Z,96438.63
2022-10-02T04:47:00.044Z,96442.00
2022-10-02T04:50:00.013Z,96446.72
2022-10-02T04:52:32.835Z,96451.84
2022-10-02T04:55:17.298Z,96459.72
2022-10-02T04:57:59.462Z,96460.28
2022-10-02T05:00:33.528Z,96462.13
2022-10-02T05:03:28.726Z,96467.53
2022-10-02T05:05:58.775Z,96466.19
2022-10-02T05:08:31.719Z,96473.09
2022-10-02T05:11:17.894Z,96475.81
2022-10-02T05:13:56.611Z,96478.72
2022-10-02T05:16:56.218Z,96483.22
2022-10-02T05:19:55.355Z,96474.03
2022-10-02T05:22:34.312Z,96477.41
2022-10-02T05:25:07.588Z,96475.56
2022-10-02T05:27:46.215Z,96473.81
2022-10-02T05:30:20.030Z,96493.53
2022-10-02T05:33:06.438Z,96493.78
2022-10-02T05:35:42.303Z,96492.50
2022-10-02T05:38:12.050Z,96495.50
2022-10-02T05:40:57.208Z,96499.84
2022-10-02T05:43:37.448Z,96490.38
2022-10-02T05:46:21.636Z,96509.75
2022-10-02T05:48:59.940Z,96514.19
2022-10-02T05:51:39.459Z,96513.47
2022-10-02T05:54:31.786Z,96518.63
2022-10-02T05:57:38.780Z,96518.25
2022-10-02T06:00:19.908Z,96517.44
2022-10-02T06:02:57.814Z,96520.78
2022-10-02T06:05:36.698Z,96524.50
2022-10-02T06:08:07.206Z,96521.53
2022-10-02T06:10:43.457Z,96522.28
2022-10-02T06:13:23.496Z,96524.34
2022-10-02T06:16:12.405Z,96530.66
2022-10-02T06:18:44.379Z,96527.72
2022-10-02T06:21:35.841Z,96537.91
2022-10-02T06:24:08.919Z,96538.09
2022-10-02T06:26:44.179Z,96546.44
2022-10-02T06:29:27.419Z,96543.81
2022-10-02T06:32:07.881Z,96553.28
2022-10-02T06:34:34.909Z,96542.22
2022-10-02T06:37:04.599Z,96555.13
2022-10-02T06:40:06.058Z,96559.28
2022-10-02T06:42:54.057Z,96560.38
2022-10-02T06:45:35.041Z,96564.94
2022-10-02T06:48:05.947Z,96569.44
2022-10-02T06:50:49.448Z,96563.22
2022-10-02T06:53:41.250Z,96571.94
2022-10-02T06:56:38.130Z,96568.09
2022-10-02T06:59:30.860Z,96569.00
2022-10-02T07:02:28.679Z,96564.06
2022-10-02T07:05:08.269Z,96568.09
2022-10-02T07:07:45.679Z,96574.56
2022-10-02T07:10:35.998Z,96566.47
2022-10-02T07:13:26.728Z,96557.91
2022-10-02T07:16:12.544Z,96569.50
2022-10-02T07:18:51.591Z,96560.69
2022-10-02T07:21:34.588Z,96570.03
2022-10-02T07:24:32.889Z,96564.88
2022-10-02T07:27:12.261Z,96563.41
2022-10-02T07:30:02.279Z,96560.06
2022-10-02T07:32:38.175Z,96565.41
2022-10-02T07:36:03.600Z,96562.63
2022-10-02T07:38:45.245Z,96568.47
2022-10-02T07:41:37.062Z,96580.06
2022-10-02T07:44:45.376Z,96568.84
2022-10-02T07:47:30.641Z,96573.38
2022-10-02T07:50:18.851Z,96579.97
2022-10-02T07:53:02.524Z,96579.75
2022-10-02T07:55:30.120Z,96581.59
2022-10-02T07:58:01.702Z,96583.75
2022-10-02T08:00:38.454Z,96577.69
2022-10-02T08:03:13.041Z,96571.41
2022-10-02T08:05:44.924Z,96571.97
2022-10-02T08:08:41.947Z,96566.50
2022-10-02T08:11:12.027Z,96560.75
2022-10-02T08:14:02.582Z,96561.56
2022-10-02T08:16:41.135Z,96559.50
2022-10-02T08:19:17.533Z,96560.59
2022-10-02T08:21:55.807Z,96560.66
2022-10-02T08:24:39.600Z,96563.28
2022-10-02T08:27:13.704Z,96565.41
2022-10-02T08:29:48.260Z,96558.06
2022-10-02T08:32:15.410Z,96552.25
2022-10-02T08:34:44.335Z,96547.25
2022-10-02T08:37:29.829Z,96548.03
2022-10-02T08:40:30.648Z,96542.22
2022-10-02T08:43:26.068Z,96539.56
2022-10-02T08:46:11.439Z,96545.09
2022-10-02T08:48:39.957Z,96544.03
2022-10-02T08:51:48.611Z,96552.44
2022-10-02T08:54:30.586Z,96533.88
2022-10-02T08:57:18.928Z,96531.69
2022-10-02T09:00:25.420Z,96524.75
2022-10-02T09:03:20.399Z,96530.75
2022-10-02T09:05:56.552Z,96524.28
2022-10-02T09:08:42.516Z,96533.72
2022-10-02T09:11:24.730Z,96525.66
2022-10-02T09:14:10.441Z,96518.63
2022-10-02T09:16:52.913Z,96518.75
2022-10-02T09:19:57.358Z,96521.19
2022-10-02T09:22:36.718Z,96515.34
2022-10-02T09:25:29.769Z,96513.03
2022-10-02T09:28:38.880Z,96514.38
2022-10-02T09:31:24.801Z,96518.13
2022-10-02T09:34:16.611Z,96511.28
2022-10-02T09:37:24.340Z,96517.63
2022-10-02T09:40:19.129Z,96513.94
2022-10-02T09:43:17.647Z,96522.22
2022-10-02T09:46:10.564Z,96520.72
2022-10-02T09:48:59.539Z,96523.25
2022-10-02T09:51:57.370Z,96522.06
2022-10-02T09:54:33.184Z,96526.09
2022-10-02T09:57:18.540Z,96528.28
2022-10-02T09:59:51.656Z,96538.44
2022-10-02T10:02:33.825Z,96526.41
2022-10-02T10:05:35.172Z,96527.91
2022-10-02T10:08:23.984Z,96528.69
2022-10-02T10:11:12.618Z,96522.19
2022-10-02T10:14:24.746Z,96520.50
2022-10-02T10:17:10.044Z,96519.28
2022-10-02T10:20:01.914Z,96502.81
2022-10-02T10:22:57.931Z,96499.97
2022-10-02T10:25:50.910Z,96504.09
2022-10-02T10:28:54.263Z,96505.91
2022-10-02T10:31:24.270Z,96502.53
2022-10-02T10:34:03.349Z,96497.47
2022-10-02T10:37:24.017Z,96495.81
2022-10-02T10:40:19.445Z,96489.44
2022-10-02T10:43:06.932Z,96483.88
2022-10-02T10:45:54.368Z,96482.69
2022-10-02T10:48:49.563Z,96475.00
2022-10-02T10:51:22.587Z,96472.72
2022-10-02T10:54:11.460Z,96480.16
2022-10-02T10:56:44.941Z,96480.16
2022-10-02T10:59:45.908Z,96480.84
2022-10-02T11:13:55.227Z,96466.63
2022-10-02T11:16:59.579Z,96479.44
2022-10-02T11:19:48.590Z,96480.34
2022-10-02T11:22:25.177Z,96467.88
2022-10-02T11:25:13.533Z,96483.28
2022-10-02T11:28:10.149Z,96465.97
2022-10-02T11:30:59.717Z,96473.22
2022-10-02T11:33:40.811Z,96468.84
2022-10-02T11:36:42.820Z,96461.78
2022-10-02T11:39:18.709Z,96467.59
2022-10-02T11:41:59.530Z,96463.88
2022-10-02T11:44:45.611Z,96457.03
2022-10-02T11:47:28.451Z,96449.03
2022-10-02T11:50:17.158Z,96445.13
2022-10-02T11:53:12.239Z,96448.41
2022-10-02T11:56:41.149Z,96466.53
2022-10-02T11:59:29.929Z,96461.41
2022-10-02T12:02:16.181Z,96459.75
2022-10-02T12:04:49.825Z,96449.47
2022-10-02T12:07:19.740Z,96431.41
2022-10-02T12:09:54.909Z,96424.56
2022-10-02T12:12:43.452Z,96418.28
2022-10-02T12:15:36.117Z,96418.75
2022-10-02T12:18:44.898Z,96414.31
2022-10-02T12:21:50.708Z,96405.00
2022-10-02T12:24:57.460Z,96416.38
2022-10-02T12:27:42.988Z,96416.16
2022-10-02T12:30:15.118Z,96416.63
2022-10-02T12:33:08.582Z,96405.38
2022-10-02T12:36:08.767Z,96408.09
2022-10-02T12:39:09.169Z,96402.34
2022-10-02T12:41:59.179Z,96405.22
2022-10-02T12:44:42.069Z,96391.06
2022-10-02T12:47:14.878Z,96383.53
2022-10-02T12:50:01.430Z,96391.75
2022-10-02T12:52:40.810Z,96376.31
2022-10-02T12:55:29.588Z,96395.38
2022-10-02T12:58:05.598Z,96376.78
2022-10-02T13:01:17.010Z,96393.78
2022-10-02T13:04:06.039Z,96370.19
2022-10-02T13:07:17.999Z,96378.69
2022-10-02T13:10:01.317Z,96373.38
2022-10-02T13:12:36.581Z,96380.50
2022-10-02T13:15:25.498Z,96384.50
2022-10-02T13:18:12.338Z,96381.94
2022-10-02T13:20:51.676Z,96380.59
2022-10-02T13:23:42.067Z,96374.25
2022-10-02T13:26:16.000Z,96383.47
2022-10-02T13:29:08.319Z,96386.38
2022-10-02T13:31:40.493Z,96383.19
2022-10-02T13:34:16.735Z,96396.44
2022-10-02T13:37:30.708Z,96380.53
2022-10-02T13:40:33.605Z,96373.06
2022-10-02T13:43:27.337Z,96357.88
2022-10-02T13:46:03.617Z,96353.03
2022-10-02T13:48:44.722Z,96354.09
2022-10-02T13:51:52.847Z,96352.25
2022-10-02T13:54:38.684Z,96359.19
2022-10-02T13:57:24.101Z,96347.53
2022-10-02T14:00:22.040Z,96342.25
2022-10-02T14:03:03.609Z,96341.44
2022-10-02T14:05:49.322Z,96336.63
2022-10-02T14:08:46.802Z,96322.78
2022-10-02T14:11:43.809Z,96318.69
2022-10-02T14:14:49.450Z,96318.84
2022-10-02T14:17:35.242Z,96304.22
2022-10-02T14:20:20.239Z,96290.50
2022-10-02T14:23:20.639Z,96283.25
2022-10-02T14:25:48.850Z,96271.44
2022-10-02T14:28:18.694Z,96264.47
2022-10-02T14:31:00.899Z,96271.31
2022-10-02T14:33:39.916Z,96260.34
2022-10-02T14:36:34.439Z,96250.53
2022-10-02T14:39:04.288Z,96237.53
2022-10-02T14:42:05.276Z,96233.97
2022-10-02T14:44:57.189Z,96211.75
2022-10-02T14:47:24.129Z,96212.41
2022-10-02T14:50:26.369Z,96222.28
2022-10-02T14:53:07.081Z,96208.75
2022-10-02T14:55:49.666Z,96223.69
2022-10-02T14:58:45.579Z,96211.28
2022-10-02T15:01:27.202Z,96199.00
2022-10-02T15:04:12.815Z,96208.03
2022-10-02T15:06:52.738Z,96209.22
2022-10-02T15:09:28.719Z,96214.94
2022-10-02T15:12:06.029Z,96209.34
2022-10-02T15:14:51.407Z,96209.22
2022-10-02T15:17:48.691Z,96209.94
2022-10-02T15:20:30.090Z,96209.88
2022-10-02T15:23:02.684Z,96214.97
2022-10-02T15:25:51.585Z,96219.75
2022-10-02T15:28:56.436Z,96222.75
2022-10-02T15:31:26.119Z,96211.94
2022-10-02T15:34:22.999Z,96204.69
2022-10-02T15:37:10.411Z,96196.75
2022-10-02T15:39:40.762Z,96202.88
2022-10-02T15:42:09.748Z,96200.31
2022-10-02T15:44:59.190Z,96209.16
2022-10-02T15:47:36.078Z,96219.53
2022-10-02T15:50:18.449Z,96232.31
2022-10-02T15:53:05.819Z,96237.44
2022-10-02T15:55:44.751Z,96234.03
2022-10-02T15:58:21.878Z,96239.94
2022-10-02T16:01:01.214Z,96237.63
2022-10-02T16:03:36.579Z,96246.66
2022-10-02T16:06:21.298Z,96260.78
2022-10-02T16:09:15.806Z,96272.47
2022-10-02T16:12:21.989Z,96270.13
2022-10-02T16:15:08.138Z,96282.38
2022-10-02T16:17:54.088Z,96286.41
2022-10-02T16:20:32.398Z,96297.78
2022-10-02T16:23:17.529Z,96315.81
2022-10-02T16:26:06.045Z,96317.75
2022-10-02T16:28:44.819Z,96323.34
2022-10-02T16:31:25.740Z,96325.47
2022-10-02T16:34:11.799Z,96337.38
2022-10-02T16:37:05.629Z,96346.44
2022-10-02T16:40:08.215Z,96341.72
2022-10-02T16:42:42.780Z,96343.88
2022-10-02T16:45:30.831Z,96342.81
2022-10-02T16:48:54.718Z,96349.47
2022-10-02T16:51:51.199Z,96346.31
2022-10-02T16:54:43.709Z,96330.19
2022-10-02T16:57:35.121Z,96329.94
2022-10-02T17:00:09.079Z,96321.22
2022-10-02T17:02:54.515Z,96316.50
2022-10-02T17:05:31.499Z,96318.59
2022-10-02T17:07:59.721Z,96311.75
2022-10-02T17:10:29.817Z,96320.97
2022-10-02T17:13:07.570Z,96314.91
2022-10-02T17:15:50.026Z,96313.56
2022-10-02T17:18:24.593Z,96314.38
2022-10-02T17:21:08.169Z,96312.56
2022-10-02T17:23:47.635Z,96316.22
2022-10-02T17:26:23.097Z,96319.41
2022-10-02T17:29:07.069Z,96309.91
2022-10-02T17:31:36.862Z,96315.16
2022-10-02T17:34:52.999Z,96317.31
2022-10-02T17:37:39.059Z,96319.91
2022-10-02T17:40:13.965Z,96319.41
2022-10-02T17:43:04.068Z,96333.38
2022-10-02T17:45:50.328Z,96344.69
2022-10-02T17:48:33.550Z,96348.69
2022-10-02T17:51:00.619Z,96355.25
2022-10-02T17:54:24.765Z,96343.13
2022-10-02T17:57:06.575Z,96342.06
2022-10-02T17:59:48.617Z,96362.38
2022-10-02T18:02:28.198Z,96362.63
2022-10-02T18:05:26.974Z,96364.44
2022-10-02T18:08:15.428Z,96351.53
2022-10-02T18:11:09.067Z,96342.28
2022-10-02T18:13:59.285Z,96345.19
2022-10-02T18:17:21.327Z,96345.19
2022-10-02T18:20:17.359Z,96332.25
2022-10-02T18:23:02.259Z,96336.47
2022-10-02T18:25:55.048Z,96325.66
2022-10-02T18:28:34.013Z,96323.56
2022-10-02T18:31:38.518Z,96311.97
2022-10-02T18:34:26.935Z,96297.19
2022-10-02T18:37:09.766Z,96307.50
2022-10-02T18:40:04.815Z,96313.28
2022-10-02T18:42:47.268Z,96303.53
2022-10-02T18:45:25.396Z,96306.16
2022-10-02T18:48:04.569Z,96311.94
2022-10-02T18:51:01.029Z,96309.28
2022-10-02T18:53:34.300Z,96298.25
2022-10-02T18:56:13.950Z,96293.78
2022-10-02T18:58:44.975Z,96297.72
2022-10-02T19:01:19.779Z,96289.25
2022-10-02T19:04:17.562Z,96286.09
2022-10-02T19:07:06.814Z,96298.50
2022-10-02T19:09:34.147Z,96298.75
2022-10-02T19:12:14.749Z,96291.31
2022-10-02T19:14:46.658Z,96298.44
2022-10-02T19:17:15.822Z,96294.22
2022-10-02T19:19:43.740Z,96300.00
2022-10-02T19:22:19.133Z,96305.25
2022-10-02T19:24:49.807Z,96299.44
2022-10-02T19:27:33.020Z,96300.75
2022-10-02T19:30:04.067Z,96315.75
2022-10-02T19:32:35.704Z,96311.50
2022-10-02T19:35:08.507Z,96317.03
2022-10-02T19:37:41.828Z,96325.69
2022-10-02T19:40:32.008Z,96322.78
2022-10-02T19:43:14.618Z,96329.59
2022-10-02T19:45:48.477Z,96325.63
2022-10-02T19:48:19.009Z,96317.97
2022-10-02T19:50:53.868Z,96316.09
2022-10-02T19:53:27.038Z,96315.56
2022-10-02T19:55:57.312Z,96318.72
2022-10-02T19:58:34.216Z,96317.94
2022-10-02T20:01:01.903Z,96319.50
2022-10-02T20:03:30.384Z,96315.84
2022-10-02T20:06:05.320Z,96318.47
2022-10-02T20:08:43.496Z,96315.28
2022-10-02T20:11:45.596Z,96327.94
2022-10-02T20:14:18.637Z,96334.25
2022-10-02T20:17:04.387Z,96332.13
2022-10-02T20:19:36.170Z,96339.53
2022-10-02T20:22:16.387Z,96340.81
2022-10-02T20:24:51.800Z,96339.47
2022-10-02T20:27:27.818Z,96340.28
2022-10-02T20:30:01.118Z,96344.50
2022-10-02T20:32:35.170Z,96345.28
2022-10-02T20:35:18.803Z,96349.75
2022-10-02T20:37:49.630Z,96340.03
2022-10-02T20:40:25.454Z,96347.91
2022-10-02T20:43:22.198Z,96360.50
2022-10-02T20:46:11.900Z,96369.69
2022-10-02T20:49:08.369Z,96373.09
2022-10-02T20:52:19.669Z,96370.72
2022-10-02T20:54:49.606Z,96359.59
2022-10-02T20:57:16.482Z,96354.88
2022-10-02T20:59:48.182Z,96345.59
2022-10-02T21:02:33.261Z,96342.44
2022-10-02T21:05:25.378Z,96334.81
2022-10-02T21:08:28.539Z,96331.38
2022-10-02T21:10:55.490Z,96330.63
2022-10-02T21:13:24.441Z,96332.44
2022-10-02T21:16:10.869Z,96333.50
2022-10-02T21:19:13.482Z,96331.91
2022-10-02T21:22:08.538Z,96340.34
2022-10-02T21:24:53.928Z,96349.28
2022-10-02T21:27:20.896Z,96327.94
2022-10-02T21:30:28.181Z,96324.47
2022-10-02T21:33:10.179Z,96324.47
2022-10-02T21:35:57.480Z,96337.06
2022-10-02T21:38:55.508Z,96350.16
2022-10-02T21:41:55.139Z,96355.38
2022-10-02T21:44:52.218Z,96352.47
2022-10-02T21:47:40.888Z,96347.97
2022-10-02T21:50:10.937Z,96343.72
2022-10-02T21:52:50.408Z,96367.06
2022-10-02T21:55:39.773Z,96359.94
2022-10-02T21:58:37.668Z,96367.75
2022-10-02T22:01:42.678Z,96367.16
2022-10-02T22:04:49.039Z,96374.44
2022-10-02T22:07:43.237Z,96362.84
2022-10-02T22:10:35.879Z,96361.22
2022-10-02T22:13:37.174Z,96362.50
2022-10-02T22:16:26.354Z,96374.00
2022-10-02T22:19:11.219Z,96376.63
2022-10-02T22:21:56.361Z,96377.66
2022-10-02T22:24:26.209Z,96374.72
2022-10-02T22:27:18.738Z,96388.09
2022-10-02T22:29:51.907Z,96391.22
2022-10-02T22:32:46.520Z,96387.22
2022-10-02T22:35:21.209Z,96369.34
2022-10-02T22:38:10.148Z,96379.81
2022-10-02T22:40:49.008Z,96367.41
2022-10-02T22:43:50.239Z,96369.72
2022-10-02T22:46:42.230Z,96379.69
2022-10-02T22:49:36.398Z,96382.97
2022-10-02T22:52:31.839Z,96383.75
2022-10-02T22:55:21.429Z,96381.63
2022-10-02T22:58:00.521Z,96379.53
2022-10-02T23:00:53.478Z,96383.75
2022-10-02T23:03:40.387Z,96384.56
2022-10-02T23:06:13.227Z,96388.22
2022-10-02T23:08:55.502Z,96385.59
2022-10-02T23:11:29.123Z,96392.38
2022-10-02T23:14:03.182Z,96396.22
2022-10-02T23:16:54.161Z,96390.72
2022-10-02T23:19:41.321Z,96390.41
2022-10-02T23:22:40.153Z,96392.22
2022-10-02T23:25:34.302Z,96391.75
2022-10-02T23:28:10.358Z,96395.19
2022-10-02T23:30:46.340Z,96393.63
2022-10-02T23:33:16.390Z,96411.53
2022-10-02T23:35:54.452Z,96408.19
2022-10-02T23:38:23.502Z,96407.72
2022-10-02T23:41:28.542Z,96397.38
2022-10-02T23:44:29.160Z,96401.09
2022-10-02T23:46:56.112Z,96398.78
2022-10-02T23:49:35.538Z,96409.59
2022-10-02T23:52:31.722Z,96413.81
2022-10-02T23:55:20.356Z,96418.25
2022-10-02T23:58:16.419Z,96420.94
